Time;durP1;ratioP1;P1;durP2;ratioP2;P2;SDS_P1;SDS_P2;PMS_P1;PMS_P2;Temp;Humidity;BMP_temperature;BMP_pressure;BME280_temperature;BME280_humidity;BME280_pressure;Samples;Min_cycle;Max_cycle;Signal;HPM_P1;HPM_P2
2023/03/27 00:01:03;;;;;;;;;;;;;;;1.62;100.00;101428.19;5031915;28;20005;-76
2023/03/27 00:03:28;;;;;;;;;;;;;;;1.64;100.00;101436.09;5047829;28;19966;-75
2023/03/27 00:06:04;;;;;;;;;;;;;;;1.67;100.00;101433.38;5051971;28;20276;-76
2023/03/27 00:08:30;;;;;;;;;;;;;;;1.71;100.00;101442.94;5016090;28;19990;-76
2023/03/27 00:10:55;;;;;;;;;;;;;;;1.72;100.00;101433.22;5034025;28;19921;-76
2023/03/27 00:13:21;;;;;;;;;;;;;;;1.69;100.00;101443.91;5033774;28;19962;-76
2023/03/27 00:15:46;;;;;;;;;;;;;;;1.71;100.00;101431.47;5033992;28;19926;-75
2023/03/27 00:18:12;;;;;;;;;;;;;;;1.55;100.00;101444.31;5049204;28;19970;-76
2023/03/27 00:20:38;;;;;;;;;;;;;;;1.48;100.00;101449.78;5029407;28;19946;-76
2023/03/27 00:23:03;;;;;;;;;;;;;;;1.41;100.00;101460.59;5016405;28;19921;-76
2023/03/27 00:25:28;;;;;;;;;;;;;;;1.38;100.00;101460.69;5015607;28;19920;-76
2023/03/27 00:27:55;;;;;;;;;;;;;;;1.34;100.00;101465.22;5052805;28;19920;-76
2023/03/27 00:30:20;;;;;;;;;;;;;;;1.29;100.00;101469.78;5028622;28;19929;-76
2023/03/27 00:32:45;;;;;;;;;;;;;;;1.29;100.00;101480.34;5049653;28;19996;-75
2023/03/27 00:35:12;;;;;;;;;;;;;;;1.25;100.00;101473.41;5017283;28;19955;-76
2023/03/27 00:37:37;;;;;;;;;;;;;;;1.20;100.00;101479.69;5034011;28;19921;-76
2023/03/27 00:40:06;;;;;;;;;;;;;;;1.20;100.00;101485.00;5030955;28;19925;-76
2023/03/27 00:42:32;;;;;;;;;;;;;;;1.13;100.00;101486.09;5015227;28;19927;-76
2023/03/27 00:44:57;;;;;;;;;;;;;;;1.16;100.00;101487.78;5046761;28;19924;-76
2023/03/27 00:47:32;;;;;;;;;;;;;;;1.18;100.00;101492.13;5049132;28;19967;-76
2023/03/27 00:49:58;;;;;;;;;;;;;;;1.14;100.00;101487.84;5029892;28;20322;-76
2023/03/27 00:52:28;;;;;;;;;;;;;;;1.07;100.00;101496.84;5019008;28;19924;-76
2023/03/27 00:54:53;;;;;;;;;;;;;;;1.02;100.00;101498.72;5025256;28;20042;-76
2023/03/27 00:57:18;;;;;;;;;;;;;;;1.04;100.00;101495.16;5032080;28;20390;-76
2023/03/27 00:59:43;;;;;;;;;;;;;;;1.03;100.00;101500.47;5013330;28;20535;-76
2023/03/27 01:02:09;;;;;;;;;;;;;;;1.03;100.00;101505.75;5025580;28;19924;-76
2023/03/27 01:04:34;;;;;;;;;;;;;;;1.00;100.00;101513.78;5031084;28;20036;-76
2023/03/27 01:07:02;;;;;;;;;;;;;;;1.00;100.00;101508.47;5033318;28;19920;-76
2023/03/27 01:09:27;;;;;;;;;;;;;;;1.01;100.00;101511.09;5031992;28;19924;-76
2023/03/27 01:11:53;;;;;;;;;;;;;;;1.09;100.00;101510.88;5034887;28;19982;-75
2023/03/27 01:14:27;;;;;;;;;;;;;;;1.09;100.00;101513.53;5049867;28;19951;-76
2023/03/27 01:16:58;;;;;;;;;;;;;;;1.16;100.00;101514.22;5046202;28;19993;-76
2023/03/27 01:19:31;;;;;;;;;;;;;;;1.28;100.00;101524.47;5046534;28;19959;-76
2023/03/27 01:22:01;;;;;;;;;;;;;;;1.45;100.00;101518.72;5030944;28;19927;-76
2023/03/27 01:24:44;;;;;;;;;;;;;;;1.57;100.00;101529.84;5031544;28;20002;-76
2023/03/27 01:27:15;;;;;;;;;;;;;;;1.66;100.00;101532.22;5029719;28;20214;-76
2023/03/27 01:29:58;;;;;;;;;;;;;;;1.69;100.00;101523.31;5027242;28;19947;-76
2023/03/27 01:32:42;;;;;;;;;;;;;;;1.71;100.00;101537.38;5048890;28;20166;-76
2023/03/27 01:35:16;;;;;;;;;;;;;;;1.80;100.00;101543.28;5052229;28;19920;-76
2023/03/27 01:37:50;;;;;;;;;;;;;;;1.79;100.00;101545.97;5050706;28;19947;-76
2023/03/27 01:40:19;;;;;;;;;;;;;;;1.84;100.00;101549.34;5030973;28;20309;-76
2023/03/27 01:42:46;;;;;;;;;;;;;;;1.88;100.00;101555.41;5035759;28;19963;-76
2023/03/27 01:45:19;;;;;;;;;;;;;;;1.90;100.00;101554.44;5047539;28;19967;-76
2023/03/27 01:47:57;;;;;;;;;;;;;;;1.94;100.00;101555.25;5029599;28;19948;-76
2023/03/27 01:50:25;;;;;;;;;;;;;;;1.96;100.00;101550.78;5029963;28;20332;-76
2023/03/27 01:52:52;;;;;;;;;;;;;;;2.04;100.00;101546.09;5033725;28;19931;-76
2023/03/27 01:55:18;;;;;;;;;;;;;;;2.03;100.00;101547.00;5030926;28;20627;-76
2023/03/27 01:57:51;;;;;;;;;;;;;;;1.98;100.00;101550.72;5030477;28;20011;-76
2023/03/27 02:00:20;;;;;;;;;;;;;;;1.98;100.00;101556.88;5014142;28;19971;-76
2023/03/27 02:02:50;;;;;;;;;;;;;;;2.02;100.00;101563.81;5032686;28;19921;-76
2023/03/27 02:05:21;;;;;;;;;;;;;;;2.01;100.00;101575.31;5032393;28;19958;-76
2023/03/27 02:07:47;;;;;;;;;;;;;;;2.12;100.00;101567.03;5027743;28;20003;-76
2023/03/27 02:10:14;;;;;;;;;;;;;;;2.14;100.00;101574.94;5027178;28;19929;-76
2023/03/27 02:12:41;;;;;;;;;;;;;;;2.17;100.00;101573.06;5030752;28;19920;-76
2023/03/27 02:15:06;;;;;;;;;;;;;;;2.27;100.00;101581.59;5050816;28;19967;-76
2023/03/27 02:17:32;;;;;;;;;;;;;;;2.36;100.00;101594.56;5051285;28;20012;-76
2023/03/27 02:20:09;;;;;;;;;;;;;;;2.43;100.00;101605.84;5011371;28;19920;-76
2023/03/27 02:22:35;;;;;;;;;;;;;;;2.69;100.00;101596.19;5028893;28;19966;-75
2023/03/27 02:25:00;;;;;;;;;;;;;;;2.73;100.00;101604.94;5028782;28;19920;-76
2023/03/27 02:27:29;;;;;;;;;;;;;;;2.81;100.00;101597.56;5031003;28;20002;-75
2023/03/27 02:29:58;;;;;;;;;;;;;;;2.79;100.00;101605.59;5027886;28;19924;-75
2023/03/27 02:32:26;;;;;;;;;;;;;;;2.74;100.00;101604.00;5028583;28;19966;-75
2023/03/27 02:35:04;;;;;;;;;;;;;;;2.59;100.00;101610.66;5050497;28;19920;-75
2023/03/27 02:37:35;;;;;;;;;;;;;;;2.30;100.00;101615.94;5031857;28;20058;-75
2023/03/27 02:40:23;;;;;;;;;;;;;;;2.28;100.00;101619.56;5026957;28;19921;-75
2023/03/27 02:42:49;;;;;;;;;;;;;;;2.22;100.00;101626.78;5008653;28;19959;-75
2023/03/27 02:45:17;;;;;;;;;;;;;;;2.11;100.00;101626.25;5026154;28;19963;-75
2023/03/27 02:47:44;;;;;;;;;;;;;;;2.08;100.00;101629.00;5045757;28;19924;-75
2023/03/27 02:50:17;;;;;;;;;;;;;;;2.01;100.00;101638.88;5028597;28;19956;-75
2023/03/27 02:52:44;;;;;;;;;;;;;;;1.85;100.00;101638.50;5032255;28;19968;-75
2023/03/27 02:55:13;;;;;;;;;;;;;;;1.80;100.00;101637.75;5032298;28;19921;-75
2023/03/27 02:57:38;;;;;;;;;;;;;;;1.72;100.00;101635.28;5050922;28;19928;-75
2023/03/27 03:00:11;;;;;;;;;;;;;;;1.73;100.00;101646.75;5062817;28;20000;-75
2023/03/27 03:02:36;;;;;;;;;;;;;;;1.66;100.00;101640.78;5041531;28;19920;-75
2023/03/27 03:05:04;;;;;;;;;;;;;;;1.60;100.00;101639.13;5040906;28;20304;-75
2023/03/27 03:07:33;;;;;;;;;;;;;;;1.52;100.00;101640.25;5038894;28;20062;-75
2023/03/27 03:09:58;;;;;;;;;;;;;;;1.47;100.00;101648.34;5032995;28;20050;-75
2023/03/27 03:12:24;;;;;;;;;;;;;;;1.44;100.00;101651.94;5016625;28;20311;-75
2023/03/27 03:14:49;;;;;;;;;;;;;;;1.34;100.00;101655.72;5049681;28;19928;-75
2023/03/27 03:17:15;;;;;;;;;;;;;;;1.31;100.00;101655.81;5014420;28;19925;-75
2023/03/27 03:19:40;;;;;;;;;;;;;;;1.22;100.00;101667.50;5034036;28;19920;-75
2023/03/27 03:22:06;;;;;;;;;;;;;;;1.11;100.00;101670.41;5035057;28;19921;-75
2023/03/27 03:24:32;;;;;;;;;;;;;;;1.11;100.00;101678.34;5035452;28;19927;-75
2023/03/27 03:26:58;;;;;;;;;;;;;;;0.95;100.00;101672.56;5029989;28;19920;-75
2023/03/27 03:29:35;;;;;;;;;;;;;;;0.99;100.00;101670.72;5051440;28;19968;-74
2023/03/27 03:32:01;;;;;;;;;;;;;;;0.98;100.00;101677.78;5039572;28;19927;-74
2023/03/27 03:34:26;;;;;;;;;;;;;;;0.91;100.00;101672.69;5025974;28;19921;-74
2023/03/27 03:36:54;;;;;;;;;;;;;;;0.90;100.00;101685.03;5022153;28;20431;-74
2023/03/27 03:39:19;;;;;;;;;;;;;;;0.83;100.00;101689.59;5046282;28;19920;-74
2023/03/27 03:41:44;;;;;;;;;;;;;;;0.69;100.00;101697.84;5040584;28;20629;-74
2023/03/27 03:44:10;;;;;;;;;;;;;;;0.67;100.00;101698.75;5043058;28;19948;-74
2023/03/27 03:46:35;;;;;;;;;;;;;;;0.65;100.00;101706.75;5043341;28;20915;-74
2023/03/27 03:49:01;;;;;;;;;;;;;;;0.66;100.00;101707.63;5055414;28;20702;-74
2023/03/27 03:51:27;;;;;;;;;;;;;;;0.57;100.00;101708.69;5043094;28;19916;-74
2023/03/27 03:53:52;;;;;;;;;;;;;;;0.49;100.00;101708.84;5041106;28;20023;-74
2023/03/27 03:56:17;;;;;;;;;;;;;;;0.44;100.00;101716.00;5057489;28;19920;-74
2023/03/27 03:58:43;;;;;;;;;;;;;;;0.48;100.00;101727.41;5025125;28;20002;-74
2023/03/27 04:01:09;;;;;;;;;;;;;;;0.48;100.00;101725.59;5039192;28;20058;-74
2023/03/27 04:03:34;;;;;;;;;;;;;;;0.23;100.00;101707.63;5041762;28;20034;-74
2023/03/27 04:06:00;;;;;;;;;;;;;;;0.39;100.00;101733.75;5042490;28;19969;-74
2023/03/27 04:08:26;;;;;;;;;;;;;;;0.42;100.00;101736.31;5042001;28;19931;-74
2023/03/27 04:10:51;;;;;;;;;;;;;;;0.44;100.00;101734.50;5056592;28;20003;-74
2023/03/27 04:13:16;;;;;;;;;;;;;;;0.42;100.00;101747.75;5040103;28;19939;-74
2023/03/27 04:15:42;;;;;;;;;;;;;;;0.46;100.00;101747.69;5039264;28;19924;-74
2023/03/27 04:18:07;;;;;;;;;;;;;;;0.48;100.00;101744.09;5024406;28;19943;-74
2023/03/27 04:20:33;;;;;;;;;;;;;;;0.48;100.00;101749.38;5040456;28;19931;-74
2023/03/27 04:23:01;;;;;;;;;;;;;;;0.66;100.00;101764.00;5036947;28;19961;-74
2023/03/27 04:25:27;;;;;;;;;;;;;;;0.73;100.00;101764.72;5039366;28;19921;-74
2023/03/27 04:27:52;;;;;;;;;;;;;;;0.83;100.00;101768.91;5026222;28;19917;-74
2023/03/27 04:30:21;;;;;;;;;;;;;;;0.86;100.00;101765.31;5040240;28;20295;-74
2023/03/27 04:32:50;;;;;;;;;;;;;;;0.83;100.00;101770.66;5038683;28;19967;-74
2023/03/27 04:35:16;;;;;;;;;;;;;;;0.79;100.00;101769.88;5035474;28;19920;-74
2023/03/27 04:37:41;;;;;;;;;;;;;;;0.81;100.00;101776.00;5037574;28;20361;-74
2023/03/27 04:40:07;;;;;;;;;;;;;;;0.74;100.00;101780.56;5034742;28;19966;-75
2023/03/27 04:42:32;;;;;;;;;;;;;;;0.67;100.00;101780.72;5037499;28;20541;-74
2023/03/27 04:44:57;;;;;;;;;;;;;;;0.73;100.00;101786.75;5037071;28;20198;-74
2023/03/27 04:47:23;;;;;;;;;;;;;;;0.74;100.00;101793.78;5038019;28;19921;-74
2023/03/27 04:49:49;;;;;;;;;;;;;;;0.76;100.00;101793.75;5018470;28;20173;-75
2023/03/27 04:52:14;;;;;;;;;;;;;;;0.74;100.00;101803.47;5016269;28;19920;-74
2023/03/27 04:54:40;;;;;;;;;;;;;;;0.73;100.00;101810.56;5038124;28;19916;-74
2023/03/27 04:57:06;;;;;;;;;;;;;;;0.80;100.00;101813.94;5053436;28;19938;-74
2023/03/27 04:59:31;;;;;;;;;;;;;;;0.86;100.00;101813.81;5034845;28;19921;-74
2023/03/27 05:01:57;;;;;;;;;;;;;;;0.91;100.00;101812.84;5033290;28;19928;-74
2023/03/27 05:04:25;;;;;;;;;;;;;;;0.86;100.00;101819.09;5049750;28;20343;-74
2023/03/27 05:06:51;;;;;;;;;;;;;;;0.82;100.00;101819.16;5037097;28;19916;-75
2023/03/27 05:09:16;;;;;;;;;;;;;;;0.76;100.00;101819.31;5034323;28;19947;-74
2023/03/27 05:11:41;;;;;;;;;;;;;;;0.74;100.00;101828.16;5020118;28;19967;-74
2023/03/27 05:14:06;;;;;;;;;;;;;;;0.70;100.00;101825.59;5036931;28;20046;-74
2023/03/27 05:16:34;;;;;;;;;;;;;;;0.65;100.00;101832.75;5038092;28;20011;-74
2023/03/27 05:19:02;;;;;;;;;;;;;;;0.63;100.00;101834.56;5053479;28;19920;-74
2023/03/27 05:21:27;;;;;;;;;;;;;;;0.61;100.00;101845.16;5055168;28;19920;-74
2023/03/27 05:23:52;;;;;;;;;;;;;;;0.54;100.00;101840.88;5039004;28;20324;-74
2023/03/27 05:26:17;;;;;;;;;;;;;;;0.51;100.00;101840.97;5038663;28;19957;-75
2023/03/27 05:28:43;;;;;;;;;;;;;;;0.48;100.00;101843.66;5056950;28;20023;-75
2023/03/27 05:31:09;;;;;;;;;;;;;;;0.38;100.00;101849.13;5037712;28;19924;-75
2023/03/27 05:33:34;;;;;;;;;;;;;;;0.34;100.00;101850.06;5038878;28;19920;-75
2023/03/27 05:36:03;;;;;;;;;;;;;;;0.34;100.00;101854.50;5057111;28;20203;-75
2023/03/27 05:38:28;;;;;;;;;;;;;;;0.31;100.00;101865.13;5037180;28;20339;-75
2023/03/27 05:40:53;;;;;;;;;;;;;;;0.33;100.00;101868.59;5029507;28;19932;-75
2023/03/27 05:43:19;;;;;;;;;;;;;;;0.22;100.00;101866.16;5052215;28;19939;-75
2023/03/27 05:45:44;;;;;;;;;;;;;;;0.28;100.00;101872.19;5035458;28;19927;-75
2023/03/27 05:48:09;;;;;;;;;;;;;;;0.34;100.00;101871.22;5031499;28;19959;-75
2023/03/27 05:50:36;;;;;;;;;;;;;;;0.32;100.00;101870.34;5032777;28;19966;-75
2023/03/27 05:53:02;;;;;;;;;;;;;;;0.35;100.00;101865.03;5033015;28;20182;-75
2023/03/27 05:55:27;;;;;;;;;;;;;;;0.38;100.00;101864.13;5033824;28;20363;-75
2023/03/27 05:57:52;;;;;;;;;;;;;;;0.45;100.00;101868.34;5035999;28;19921;-75
2023/03/27 06:00:23;;;;;;;;;;;;;;;0.46;100.00;101875.38;5029635;28;19920;-75
2023/03/27 06:02:49;;;;;;;;;;;;;;;0.54;100.00;101884.06;5021159;28;19921;-75
2023/03/27 06:05:14;;;;;;;;;;;;;;;0.64;100.00;101882.09;5036574;28;19991;-75
2023/03/27 06:07:41;;;;;;;;;;;;;;;0.78;100.00;101887.13;5029868;28;20222;-75
2023/03/27 06:10:06;;;;;;;;;;;;;;;0.93;100.00;101882.44;5035246;28;19924;-75
2023/03/27 06:12:32;;;;;;;;;;;;;;;1.06;100.00;101893.63;5022324;28;19931;-75
2023/03/27 06:14:57;;;;;;;;;;;;;;;1.13;100.00;101890.81;5035569;28;19976;-75
2023/03/27 06:17:22;;;;;;;;;;;;;;;1.31;100.00;101896.59;5037157;28;20032;-75
2023/03/27 06:19:48;;;;;;;;;;;;;;;1.32;100.00;101880.69;5033653;28;20324;-75
2023/03/27 06:22:13;;;;;;;;;;;;;;;1.48;100.00;101905.03;5049517;28;20403;-74
2023/03/27 06:24:38;;;;;;;;;;;;;;;1.46;100.00;101903.31;5025405;28;19927;-74
2023/03/27 06:27:03;;;;;;;;;;;;;;;1.59;100.00;101907.41;5023515;28;19963;-75
2023/03/27 06:29:29;;;;;;;;;;;;;;;1.76;100.00;101906.19;5055127;28;20019;-75
2023/03/27 06:31:57;;;;;;;;;;;;;;;2.06;100.00;101919.59;5052710;28;19927;-75
2023/03/27 06:34:22;;;;;;;;;;;;;;;2.29;100.00;101910.19;5038209;28;20026;-74
2023/03/27 06:36:48;;;;;;;;;;;;;;;2.53;100.00;101909.53;5023941;28;19920;-75
2023/03/27 06:39:14;;;;;;;;;;;;;;;2.77;100.00;101909.78;5035852;28;19924;-76
2023/03/27 06:41:39;;;;;;;;;;;;;;;2.89;100.00;101908.56;5036336;28;19926;-75
2023/03/27 06:44:04;;;;;;;;;;;;;;;3.07;100.00;101912.47;5035732;28;20313;-75
2023/03/27 06:46:30;;;;;;;;;;;;;;;3.03;100.00;101920.56;5015390;28;20382;-74
2023/03/27 06:48:55;;;;;;;;;;;;;;;3.15;100.00;101922.84;5033165;28;20041;-74
2023/03/27 06:51:21;;;;;;;;;;;;;;;3.18;100.00;101928.06;5029617;28;19940;-75
2023/03/27 06:53:48;;;;;;;;;;;;;;;3.31;100.00;101920.63;5050599;28;19971;-75
2023/03/27 06:56:13;;;;;;;;;;;;;;;3.39;100.00;101938.97;5054981;28;19920;-75
2023/03/27 06:58:38;;;;;;;;;;;;;;;3.53;100.00;101933.22;5047994;28;19920;-75
2023/03/27 07:01:03;;;;;;;;;;;;;;;3.63;100.00;101936.47;5054000;28;19997;-75
2023/03/27 07:03:29;;;;;;;;;;;;;;;3.74;100.00;101937.88;5033890;28;19925;-75
2023/03/27 07:05:54;;;;;;;;;;;;;;;3.96;100.00;101945.19;5020566;28;19920;-75
2023/03/27 07:08:20;;;;;;;;;;;;;;;4.17;100.00;101948.91;5029723;28;19963;-74
2023/03/27 07:10:45;;;;;;;;;;;;;;;4.35;100.00;101944.75;5048767;28;20184;-75
2023/03/27 07:13:10;;;;;;;;;;;;;;;4.32;100.00;101946.66;5021676;28;19967;-74
2023/03/27 07:15:36;;;;;;;;;;;;;;;4.58;100.00;101943.09;5053085;28;20002;-74
2023/03/27 07:18:03;;;;;;;;;;;;;;;4.76;100.00;101946.06;5036028;28;19921;-74
2023/03/27 07:20:28;;;;;;;;;;;;;;;4.77;100.00;101959.28;5020095;28;19921;-75
2023/03/27 07:22:55;;;;;;;;;;;;;;;4.83;100.00;101962.66;5018400;28;19924;-75
2023/03/27 07:25:21;;;;;;;;;;;;;;;5.04;100.00;101956.56;5055896;28;19921;-74
2023/03/27 07:27:46;;;;;;;;;;;;;;;4.92;100.00;101968.53;5031323;28;20283;-75
2023/03/27 07:30:12;;;;;;;;;;;;;;;5.09;100.00;101967.03;5032377;28;19936;-75
2023/03/27 07:32:38;;;;;;;;;;;;;;;5.24;100.00;101961.16;5054217;28;20363;-74
2023/03/27 07:35:07;;;;;;;;;;;;;;;5.50;100.00;101969.06;5049629;28;20002;-75
2023/03/27 07:37:32;;;;;;;;;;;;;;;5.70;100.00;101971.81;5047528;28;20427;-75
2023/03/27 07:39:57;;;;;;;;;;;;;;;4.88;100.00;101977.53;5049532;28;20286;-76
2023/03/27 07:42:23;;;;;;;;;;;;;;;4.70;100.00;101978.19;5052075;28;20381;-74
2023/03/27 07:44:48;;;;;;;;;;;;;;;4.52;100.00;101991.19;5055192;28;20423;-74
2023/03/27 07:47:13;;;;;;;;;;;;;;;4.28;100.00;101990.22;5053480;28;19929;-75
2023/03/27 07:49:39;;;;;;;;;;;;;;;4.38;100.00;101990.78;5016999;28;19982;-76
2023/03/27 07:52:05;;;;;;;;;;;;;;;4.49;100.00;101988.66;5055565;28;19994;-74
2023/03/27 07:54:30;;;;;;;;;;;;;;;4.78;100.00;101984.09;5032779;28;19963;-75
2023/03/27 07:56:56;;;;;;;;;;;;;;;5.07;100.00;101980.41;5052122;28;20496;-75
2023/03/27 07:59:21;;;;;;;;;;;;;;;5.18;100.00;101981.78;5036526;28;19931;-75
2023/03/27 08:01:49;;;;;;;;;;;;;;;5.36;100.00;101985.56;5037258;28;20055;-76
2023/03/27 08:04:14;;;;;;;;;;;;;;;5.00;100.00;101983.34;5050963;28;20486;-75
2023/03/27 08:06:40;;;;;;;;;;;;;;;4.82;100.00;101999.03;5033747;28;19956;-75
2023/03/27 08:09:05;;;;;;;;;;;;;;;5.00;100.00;101997.50;5040071;28;20019;-75
2023/03/27 08:11:31;;;;;;;;;;;;;;;5.24;100.00;101992.22;5040472;28;19962;-76
2023/03/27 08:13:57;;;;;;;;;;;;;;;5.23;100.00;101995.81;5055774;28;19930;-76
2023/03/27 08:16:26;;;;;;;;;;;;;;;5.58;100.00;101990.97;5056098;28;19921;-78
2023/03/27 08:18:52;;;;;;;;;;;;;;;5.70;100.00;101998.47;5034719;28;20508;-76
2023/03/27 08:21:17;;;;;;;;;;;;;;;5.85;100.00;102001.47;5048009;28;19999;-75
2023/03/27 08:23:42;;;;;;;;;;;;;;;6.11;100.00;102003.13;5056335;28;19925;-77
2023/03/27 08:26:07;;;;;;;;;;;;;;;6.04;100.00;102014.09;5053621;28;19920;-75
2023/03/27 08:28:33;;;;;;;;;;;;;;;6.40;100.00;102011.72;5056777;28;19985;-76
2023/03/27 08:30:59;;;;;;;;;;;;;;;6.50;100.00;101998.88;5038175;28;20015;-77
2023/03/27 08:33:26;;;;;;;;;;;;;;;6.87;100.00;102012.47;5019208;28;20366;-77
2023/03/27 08:35:51;;;;;;;;;;;;;;;7.05;100.00;102014.31;5033633;28;19920;-76
2023/03/27 08:38:17;;;;;;;;;;;;;;;7.37;100.00;102010.28;5048536;28;19942;-76
2023/03/27 08:40:51;;;;;;;;;;;;;;;7.08;100.00;102015.13;5037739;28;19967;-75
2023/03/27 08:43:25;;;;;;;;;;;;;;;6.22;100.00;102020.50;5022765;28;19994;-76
2023/03/27 08:45:57;;;;;;;;;;;;;;;5.96;100.00;102025.91;5038605;28;19920;-76
2023/03/27 08:48:49;;;;;;;;;;;;;;;6.50;100.00;102024.69;5052672;28;20023;-76
2023/03/27 08:51:20;;;;;;;;;;;;;;;6.59;100.00;102019.00;5049175;28;20456;-76
2023/03/27 08:53:50;;;;;;;;;;;;;;;6.65;100.00;102034.72;5032534;28;19935;-77
2023/03/27 08:56:16;;;;;;;;;;;;;;;6.38;100.00;102037.59;5036054;28;19920;-78
2023/03/27 08:58:41;;;;;;;;;;;;;;;6.53;100.00;102032.56;5053497;28;19990;-76
2023/03/27 09:01:18;;;;;;;;;;;;;;;6.52;100.00;102039.69;5051478;28;20465;-76
2023/03/27 09:03:43;;;;;;;;;;;;;;;7.27;100.00;102042.75;5026448;28;19932;-76
2023/03/27 09:06:23;;;;;;;;;;;;;;;7.61;100.00;102043.91;5051256;28;20024;-76
2023/03/27 09:09:02;;;;;;;;;;;;;;;7.91;98.83;102047.88;5039687;28;20056;-75
2023/03/27 09:11:56;;;;;;;;;;;;;;;7.79;91.41;102052.00;5038684;28;19920;-76
2023/03/27 09:14:45;;;;;;;;;;;;;;;8.05;89.12;102048.09;5033437;28;19964;-76
2023/03/27 09:17:13;;;;;;;;;;;;;;;8.16;80.85;102060.06;5045566;28;20000;-76
2023/03/27 09:19:42;;;;;;;;;;;;;;;8.76;78.81;102054.47;5019016;28;20034;-79
2023/03/27 09:22:21;;;;;;;;;;;;;;;7.83;73.64;102055.38;5031401;28;19928;-78
2023/03/27 09:24:47;;;;;;;;;;;;;;;8.62;77.92;102057.00;5030529;28;20227;-76
2023/03/27 09:27:16;;;;;;;;;;;;;;;8.89;73.97;102059.22;5038411;28;19971;-77
2023/03/27 09:29:41;;;;;;;;;;;;;;;8.27;76.86;102060.44;5013613;28;20022;-76
2023/03/27 09:32:09;;;;;;;;;;;;;;;7.89;75.24;102055.09;5033131;28;20348;-76
2023/03/27 09:34:35;;;;;;;;;;;;;;;7.90;79.08;102065.75;5018748;28;20322;-76
2023/03/27 09:37:01;;;;;;;;;;;;;;;7.62;78.32;102058.13;5031911;28;20381;-76
2023/03/27 09:39:32;;;;;;;;;;;;;;;7.79;77.87;102063.56;5027697;28;19920;-76
2023/03/27 09:41:59;;;;;;;;;;;;;;;7.48;71.21;102059.63;5019875;28;20449;-81
2023/03/27 09:44:26;;;;;;;;;;;;;;;7.02;72.23;102049.16;5038442;28;20381;-76
2023/03/27 09:46:56;;;;;;;;;;;;;;;7.31;75.36;102072.84;5032716;28;19928;-77
2023/03/27 09:49:22;;;;;;;;;;;;;;;7.57;75.48;102082.38;5031654;28;19924;-76
2023/03/27 09:51:48;;;;;;;;;;;;;;;8.30;76.11;102086.16;5014786;28;19970;-78
2023/03/27 09:54:15;;;;;;;;;;;;;;;8.85;72.85;102083.47;5052917;28;19924;-77
2023/03/27 09:57:01;;;;;;;;;;;;;;;8.56;64.40;102076.91;5034023;28;19920;-76
2023/03/27 09:59:37;;;;;;;;;;;;;;;9.06;63.42;102069.91;5050910;28;19925;-77
2023/03/27 10:02:08;;;;;;;;;;;;;;;9.00;64.74;102087.19;5031040;28;19920;-77
2023/03/27 10:04:34;;;;;;;;;;;;;;;7.90;65.47;102086.25;5055336;28;20110;-77
2023/03/27 10:07:05;;;;;;;;;;;;;;;8.24;68.18;102092.69;5054597;28;20635;-77
2023/03/27 10:09:33;;;;;;;;;;;;;;;8.39;68.07;102091.09;5034095;28;20039;-75
2023/03/27 10:12:05;;;;;;;;;;;;;;;8.43;61.03;102089.13;5042051;28;20324;-76
2023/03/27 10:14:33;;;;;;;;;;;;;;;9.02;61.99;102097.81;5058449;28;19924;-76
2023/03/27 10:16:58;;;;;;;;;;;;;;;9.41;60.80;102098.47;5039561;28;20372;-76
2023/03/27 10:19:28;;;;;;;;;;;;;;;10.33;61.48;102092.56;5042288;28;20878;-76
2023/03/27 10:21:54;;;;;;;;;;;;;;;8.91;56.04;102098.34;5056430;28;20378;-78
2023/03/27 10:24:32;;;;;;;;;;;;;;;8.43;57.64;102092.66;5031071;28;19927;-78
2023/03/27 10:27:03;;;;;;;;;;;;;;;9.27;60.05;102096.56;5058292;28;19975;-78
2023/03/27 10:29:36;;;;;;;;;;;;;;;10.28;59.95;102101.84;5021754;28;19960;-77
2023/03/27 10:32:02;;;;;;;;;;;;;;;10.40;59.32;102111.06;5038487;28;20057;-77
2023/03/27 10:34:32;;;;;;;;;;;;;;;9.08;65.41;102129.66;5041123;28;19923;-77
2023/03/27 10:37:00;;;;;;;;;;;;;;;9.05;67.26;102140.50;5037842;28;19920;-76
2023/03/27 10:39:26;;;;;;;;;;;;;;;8.33;71.52;102132.41;5056257;28;19964;-74
2023/03/27 10:41:51;;;;;;;;;;;;;;;7.88;78.53;102147.84;5040109;28;20003;-77
2023/03/27 10:44:20;;;;;;;;;;;;;;;8.32;82.78;102137.81;5053251;28;19920;-76
2023/03/27 10:46:45;;;;;;;;;;;;;;;8.98;79.69;102161.41;5054980;28;19924;-76
2023/03/27 10:49:29;;;;;;;;;;;;;;;8.86;83.25;102164.69;5056665;28;20370;-76
2023/03/27 10:51:54;;;;;;;;;;;;;;;8.50;80.38;102169.06;5058848;28;20145;-76
2023/03/27 10:54:26;;;;;;;;;;;;;;;7.61;84.50;102180.22;5055898;28;20370;-75
2023/03/27 10:56:52;;;;;;;;;;;;;;;6.03;94.28;102188.34;5050388;28;19927;-75
2023/03/27 10:59:41;;;;;;;;;;;;;;;5.90;100.00;102183.44;5033771;28;19920;-76
2023/03/27 11:02:11;;;;;;;;;;;;;;;6.33;100.00;102175.66;5044071;28;20414;-76
2023/03/27 11:04:40;;;;;;;;;;;;;;;7.20;94.94;102177.50;5032913;28;20278;-77
2023/03/27 11:07:05;;;;;;;;;;;;;;;7.22;90.74;102181.00;5051636;28;19970;-76
2023/03/27 11:09:37;;;;;;;;;;;;;;;6.84;87.40;102175.44;5051866;28;19932;-76
2023/03/27 11:12:08;;;;;;;;;;;;;;;7.12;87.52;102176.97;5047417;28;19920;-77
2023/03/27 11:14:52;;;;;;;;;;;;;;;7.44;83.95;102172.03;5042897;28;19927;-77
2023/03/27 11:17:19;;;;;;;;;;;;;;;8.87;76.71;102174.47;5057223;28;19917;-76
2023/03/27 11:19:45;;;;;;;;;;;;;;;9.55;68.14;102175.50;5040505;28;20005;-76
2023/03/27 11:22:14;;;;;;;;;;;;;;;10.17;65.81;102177.59;5024871;28;19925;-77
2023/03/27 11:24:46;;;;;;;;;;;;;;;11.26;61.66;102172.34;5058447;28;19916;-77
2023/03/27 11:27:29;;;;;;;;;;;;;;;11.78;60.21;102149.50;5040132;28;19921;-77
2023/03/27 11:30:17;;;;;;;;;;;;;;;12.45;57.24;102161.50;5034720;28;19925;-76
2023/03/27 11:32:48;;;;;;;;;;;;;;;12.88;52.62;102164.06;5059098;28;20220;-76
2023/03/27 11:35:17;;;;;;;;;;;;;;;12.90;49.63;102164.81;5040985;28;19916;-76
2023/03/27 11:37:48;;;;;;;;;;;;;;;13.39;50.71;102164.31;5044435;28;19916;-77
2023/03/27 11:40:19;;;;;;;;;;;;;;;12.93;50.20;102163.78;5057818;28;19936;-78
2023/03/27 11:42:44;;;;;;;;;;;;;;;13.61;50.27;102174.53;5038673;28;19994;-76
2023/03/27 11:45:13;;;;;;;;;;;;;;;12.86;49.92;102163.28;5057630;28;20343;-76
2023/03/27 11:47:42;;;;;;;;;;;;;;;13.04;49.26;102166.59;5036817;28;19920;-76
2023/03/27 11:50:19;;;;;;;;;;;;;;;12.61;50.56;102169.47;5060135;28;19989;-79
2023/03/27 11:53:03;;;;;;;;;;;;;;;12.75;51.00;102142.44;5034626;28;19916;-77
2023/03/27 11:55:32;;;;;;;;;;;;;;;13.74;53.47;102147.53;5057201;28;19916;-78
2023/03/27 11:57:57;;;;;;;;;;;;;;;14.23;50.16;102162.91;5051566;28;19920;-77
2023/03/27 12:00:28;;;;;;;;;;;;;;;13.64;49.88;102166.19;5047661;28;19943;-77
2023/03/27 12:02:56;;;;;;;;;;;;;;;12.70;50.48;102167.97;5051170;28;19939;-77
2023/03/27 12:05:42;;;;;;;;;;;;;;;11.39;55.24;102161.72;5036717;28;19920;-77
2023/03/27 12:08:26;;;;;;;;;;;;;;;10.39;56.46;102171.06;5055798;28;20260;-77
2023/03/27 12:10:51;;;;;;;;;;;;;;;10.32;59.03;102178.56;5051784;28;20019;-77
2023/03/27 12:13:17;;;;;;;;;;;;;;;9.86;62.69;102188.19;5035545;28;19921;-77
2023/03/27 12:15:51;;;;;;;;;;;;;;;9.90;66.08;102187.09;5054585;28;19920;-76
2023/03/27 12:18:35;;;;;;;;;;;;;;;10.53;70.38;102178.34;5054918;28;20047;-77
2023/03/27 12:21:03;;;;;;;;;;;;;;;12.21;63.95;102189.03;5056150;28;20399;-76
2023/03/27 12:23:28;;;;;;;;;;;;;;;12.72;61.64;102182.22;5036603;28;19921;-77
2023/03/27 12:26:12;;;;;;;;;;;;;;;12.11;59.89;102174.41;5036650;28;19968;-76
2023/03/27 12:28:56;;;;;;;;;;;;;;;11.62;61.88;102181.88;5030050;28;19943;-77
2023/03/27 12:31:22;;;;;;;;;;;;;;;11.81;64.17;102169.97;5054694;28;19971;-77
2023/03/27 12:34:06;;;;;;;;;;;;;;;12.63;60.12;102163.94;5037711;28;19920;-78
2023/03/27 12:36:34;;;;;;;;;;;;;;;13.70;56.01;102173.00;5054913;28;19956;-77
2023/03/27 12:38:59;;;;;;;;;;;;;;;13.14;55.59;102158.75;5033905;28;19924;-77
2023/03/27 12:41:29;;;;;;;;;;;;;;;13.29;53.99;102167.63;5038204;28;19939;-79
2023/03/27 12:43:55;;;;;;;;;;;;;;;14.82;53.61;102165.88;5055225;28;19924;-77